NCAR-RAP Real-Time Weather Data

Output produced by METARs form (06 May 2021  15:26 UTC)
found at http://weather.rap.ucar.edu/surface/
 
KPDX 061453Z 20011KT 10SM FEW085 SCT120 BKN250 16/06 A2993 RMK AO2 SLP133 ACC ALQDS T01560061 53017
KPDX 061353Z VRB03KT 10SM FEW070 SCT110 BKN250 14/07 A2991 RMK AO2 SLP126 ACC ALQDS T01440067
KPDX 061253Z 17006KT 10SM SCT070 SCT130 BKN250 14/07 A2990 RMK AO2 SLP122 ACC ALQDS T01440067
KPDX 061153Z 00000KT 10SM FEW180 BKN250 14/07 A2988 RMK AO2 SLP116 T01440067 10217 20144 51013
KPDX 061053Z 28004KT 10SM FEW180 BKN250 16/09 A2987 RMK AO2 SLP113 T01610089
KPDX 060953Z 26003KT 10SM FEW180 BKN250 17/09 A2986 RMK AO2 SLP109 T01670089
KPDX 060853Z 11004KT 10SM FEW180 BKN250 18/08 A2984 RMK AO2 SLP103 T01830078 50004
KPDX 060753Z 11005KT 10SM FEW180 BKN250 18/06 A2984 RMK AO2 SLP104 T01780056 402780078
KPDX 060653Z 12007KT 10SM CLR 22/02 A2983 RMK AO2 SLP099 T02170017
KPDX 060553Z 10007KT 10SM FEW180 BKN250 21/04 A2983 RMK AO2 SLP100 T02060039 10272 20206 51013
KPDX 060453Z 12010KT 10SM FEW180 BKN250 23/02 A2982 RMK AO2 SLP097 T02280022
KPDX 060353Z 12010KT 10SM FEW180 BKN250 24/03 A2981 RMK AO2 SLP093 T02390033
KPDX 060253Z 11008KT 10SM SCT180 BKN250 25/03 A2979 RMK AO2 SLP087 T02500028 56011